Time;durP1;ratioP1;P1;durP2;ratioP2;P2;SDS_P1;SDS_P2;PMS_P1;PMS_P2;Temp;Humidity;BMP_temperature;BMP_pressure;BME280_temperature;BME280_humidity;BME280_pressure;Samples;Min_cycle;Max_cycle;Signal;HPM_P1;HPM_P2
2022/01/16 00:00:40;;;;;;;81.47;37.93;;;2.40;99.90;;;;;;5008803;28;20021;-69
2022/01/16 00:05:51;;;;;;;85.23;37.17;;;2.50;99.90;;;;;;5027337;28;20497;-69
2022/01/16 00:08:17;;;;;;;75.00;33.90;;;2.30;99.90;;;;;;5027886;28;20021;-69
2022/01/16 00:10:42;;;;;;;91.90;39.07;;;2.40;99.90;;;;;;5026662;28;20029;-69
2022/01/16 00:13:08;;;;;;;90.47;39.80;;;2.30;99.90;;;;;;5008808;28;20125;-69
2022/01/16 00:15:34;;;;;;;91.23;39.50;;;2.40;99.90;;;;;;5029811;28;20489;-69
2022/01/16 00:20:32;;;;;;;124.33;48.53;;;2.40;99.90;;;;;;5031316;28;20025;-69
2022/01/16 00:22:58;;;;;;;92.60;43.50;;;2.30;99.90;;;;;;5031366;28;20036;-69
2022/01/16 00:25:24;;;;;;;96.53;44.70;;;2.20;99.90;;;;;;5031008;28;20033;-69
2022/01/16 00:27:50;;;;;;;103.40;45.53;;;;;;;;;;5029976;28;20079;-69
2022/01/16 00:30:17;;;;;;;97.93;43.47;;;2.30;99.90;;;;;;5029650;28;20585;-69
2022/01/16 00:32:43;;;;;;;107.40;45.47;;;;;;;;;;5030797;28;20656;-69
2022/01/16 00:35:11;;;;;;;121.93;47.33;;;2.50;99.90;;;;;;5031150;28;20037;-69
2022/01/16 00:37:39;;;;;;;110.00;48.60;;;2.70;99.90;;;;;;5030939;28;20093;-69
2022/01/16 00:40:06;;;;;;;109.13;44.00;;;2.50;99.90;;;;;;5030758;28;20103;-68
2022/01/16 00:42:32;;;;;;;110.77;46.90;;;2.50;99.90;;;;;;5030090;28;20459;-69
2022/01/16 00:44:58;;;;;;;98.90;42.40;;;;;;;;;;5030920;28;20052;-70
2022/01/16 00:47:23;;;;;;;121.20;49.60;;;2.40;99.90;;;;;;5030600;28;20037;-68
2022/01/16 00:49:49;;;;;;;108.77;48.57;;;2.50;99.90;;;;;;5030606;28;20048;-69
2022/01/16 00:52:15;;;;;;;115.00;48.13;;;;;;;;;;5013530;28;20378;-69
2022/01/16 00:54:41;;;;;;;94.17;41.63;;;;;;;;;;5030599;28;20048;-68
2022/01/16 00:57:06;;;;;;;92.37;44.10;;;2.40;99.90;;;;;;5029514;28;20439;-68
2022/01/16 00:59:32;;;;;;;82.47;39.77;;;2.30;99.90;;;;;;5030469;28;20025;-68
2022/01/16 01:02:00;;;;;;;107.13;46.40;;;;;;;;;;5030692;28;20033;-68
2022/01/16 01:04:26;;;;;;;108.23;43.70;;;;;;;;;;5029128;28;20034;-68
2022/01/16 01:06:52;;;;;;;106.30;43.90;;;2.50;99.90;;;;;;5030995;28;20037;-68
2022/01/16 01:09:18;;;;;;;84.93;40.13;;;2.50;99.90;;;;;;5031360;28;20047;-68
2022/01/16 01:11:46;;;;;;;86.30;43.30;;;2.40;99.90;;;;;;5030007;28;20117;-68
2022/01/16 01:17:03;;;;;;;107.70;41.90;;;;;;;;;;4931242;29;20039;-68
2022/01/16 01:19:33;;;;;;;89.13;40.17;;;2.30;99.90;;;;;;4933384;29;20047;-68
2022/01/16 01:21:59;;;;;;;97.73;39.60;;;2.40;99.90;;;;;;4950344;29;20043;-68
2022/01/16 01:24:26;;;;;;;78.93;36.57;;;;;;;;;;4950013;29;20035;-68
2022/01/16 01:26:59;;;;;;;96.33;42.07;;;2.40;99.90;;;;;;4948376;28;20031;-68
2022/01/16 01:29:28;;;;;;;88.28;38.50;;;2.20;99.90;;;;;;4950085;29;20118;-68
2022/01/16 01:31:54;;;;;;;79.90;36.57;;;;;;;;;;4950201;29;20027;-68
2022/01/16 01:34:20;;;;;;;97.33;40.67;;;;;;;;;;4948799;29;20503;-68
2022/01/16 01:36:48;;;;;;;93.10;41.40;;;;;;;;;;4949580;28;20091;-68
2022/01/16 01:39:16;;;;;;;101.27;40.03;;;2.20;99.90;;;;;;4950272;29;20054;-68
2022/01/16 01:41:41;;;;;;;119.53;45.03;;;2.20;99.90;;;;;;4948934;29;20052;-68
2022/01/16 01:52:20;;;;;;;75.93;36.75;;;;;;;;;;4940995;29;20039;-68
2022/01/16 01:54:46;;;;;;;81.80;37.47;;;2.30;99.90;;;;;;5009916;28;20399;-68
2022/01/16 01:57:12;;;;;;;79.47;35.10;;;2.10;99.90;;;;;;5029043;28;20167;-68
2022/01/16 01:59:39;;;;;;;72.00;34.70;;;;;;;;;;5029653;28;20238;-68
2022/01/16 02:02:06;;;;;;;80.13;37.57;;;2.20;99.90;;;;;;5030096;28;20036;-68
2022/01/16 02:04:32;;;;;;;92.50;38.37;;;2.20;99.90;;;;;;5029116;28;20037;-68
2022/01/16 02:06:58;;;;;;;102.77;42.63;;;2.10;99.90;;;;;;5029966;28;20035;-68
2022/01/16 02:09:24;;;;;;;82.57;37.60;;;2.10;99.90;;;;;;5029223;28;20091;-68
2022/01/16 02:11:52;;;;;;;84.87;37.43;;;2.10;99.90;;;;;;5029659;28;20032;-68
2022/01/16 02:14:29;;;;;;;98.50;41.43;;;2.20;99.90;;;;;;5030035;28;20041;-68
2022/01/16 02:36:32;;;;;;;85.87;40.73;;;2.20;99.90;;;;;;4968805;28;20042;-68
2022/01/16 02:39:12;;;;;;;91.17;39.90;;;2.20;99.90;;;;;;4967270;28;20030;-68
2022/01/16 02:41:39;;;;;;;99.10;40.93;;;2.50;99.90;;;;;;4966814;28;20542;-68
2022/01/16 02:44:17;;;;;;;66.53;32.90;;;2.70;99.90;;;;;;4968095;28;20126;-68
2022/01/16 02:46:44;;;;;;;98.63;38.67;;;2.20;99.90;;;;;;4967614;28;20597;-68
2022/01/16 02:49:24;;;;;;;78.40;36.93;;;2.30;99.90;;;;;;4967638;28;20516;-69
2022/01/16 02:51:54;;;;;;;82.07;37.47;;;2.30;99.90;;;;;;4967878;28;20031;-68
2022/01/16 02:54:20;;;;;;;81.30;33.93;;;;;;;;;;4967720;28;20038;-68
2022/01/16 02:56:48;;;;;;;79.33;37.07;;;;;;;;;;4967313;28;20407;-68
2022/01/16 02:59:14;;;;;;;74.40;35.03;;;2.40;99.90;;;;;;4968180;28;20378;-67
2022/01/16 03:01:40;;;;;;;70.83;34.53;;;2.50;99.90;;;;;;4967450;28;20050;-68
2022/01/16 03:04:06;;;;;;;59.27;27.33;;;2.30;99.90;;;;;;4967724;28;20058;-68
2022/01/16 03:06:32;;;;;;;120.87;44.30;;;2.40;99.90;;;;;;4968996;28;20114;-69
2022/01/16 03:08:58;;;;;;;76.33;35.10;;;2.50;99.90;;;;;;5028265;28;20033;-68
2022/01/16 03:11:34;;;;;;;74.60;36.43;;;2.50;99.90;;;;;;5028611;28;20105;-68
2022/01/16 03:14:00;;;;;;;100.43;39.03;;;2.30;99.90;;;;;;5028762;28;20482;-68
2022/01/16 03:16:26;;;;;;;81.83;36.53;;;;;;;;;;5028538;28;20021;-68
2022/01/16 03:21:54;;;;;;;;;;;2.40;99.90;;;;;;5026073;28;20343;-68
2022/01/16 03:24:28;;;;;;;91.20;36.83;;;2.60;99.90;;;;;;5026652;28;20008;-68
2022/01/16 03:27:03;;;;;;;72.05;30.65;;;1.60;99.90;;;;;;5026709;28;20080;-68
2022/01/16 03:29:29;;;;;;;89.27;36.47;;;2.40;99.90;;;;;;5026128;28;20098;-68
2022/01/16 03:31:57;;;;;;;94.07;37.40;;;2.30;99.90;;;;;;5026618;28;20105;-68
2022/01/16 03:34:23;;;;;;;137.10;44.17;;;2.50;99.90;;;;;;5026498;28;20890;-68
2022/01/16 03:36:49;;;;;;;81.50;37.00;;;2.40;99.90;;;;;;5027183;28;20018;-68
2022/01/16 03:39:15;;;;;;;98.00;37.43;;;2.50;99.90;;;;;;5028637;28;20108;-68
2022/01/16 03:41:41;;;;;;;100.27;39.83;;;;;;;;;;5027767;28;20415;-68
2022/01/16 03:44:07;;;;;;;124.60;38.27;;;2.60;99.90;;;;;;5026848;28;20028;-70
2022/01/16 03:46:40;;;;;;;152.80;45.60;;;2.90;99.90;;;;;;5027325;28;20076;-69
2022/01/16 03:49:09;;;;;;;104.37;39.43;;;2.60;99.90;;;;;;5009268;28;20100;-68
2022/01/16 03:51:37;;;;;;;82.83;33.63;;;2.50;99.90;;;;;;5027338;28;20397;-68
2022/01/16 03:54:03;;;;;;;121.97;43.53;;;2.60;99.90;;;;;;5028180;28;20505;-68
2022/01/16 03:56:29;;;;;;;101.87;39.97;;;2.50;99.90;;;;;;5027729;28;20025;-68
2022/01/16 03:58:55;;;;;;;98.30;36.80;;;;;;;;;;5027906;28;20036;-68
2022/01/16 04:01:21;;;;;;;80.47;33.60;;;2.40;99.90;;;;;;5027037;28;20379;-68
2022/01/16 04:03:47;;;;;;;113.13;40.80;;;2.70;99.90;;;;;;5027367;28;20037;-68
2022/01/16 04:06:12;;;;;;;118.37;44.37;;;2.60;99.90;;;;;;5027720;28;20041;-69
2022/01/16 04:08:38;;;;;;;99.60;40.77;;;2.60;99.90;;;;;;5027572;28;20025;-68
2022/01/16 04:11:04;;;;;;;79.47;31.73;;;2.60;99.90;;;;;;5028027;28;20021;-68
2022/01/16 04:13:31;;;;;;;117.93;41.27;;;;;;;;;;5027469;28;20101;-68
2022/01/16 04:15:57;;;;;;;89.60;37.70;;;2.80;99.90;;;;;;5028000;28;20032;-68
2022/01/16 04:18:23;;;;;;;82.87;34.70;;;;;;;;;;5009754;28;20402;-68
2022/01/16 04:20:49;;;;;;;73.63;31.23;;;2.70;99.90;;;;;;5027212;28;20033;-68
2022/01/16 04:23:15;;;;;;;101.40;39.73;;;;;;;;;;5028191;28;20033;-68
2022/01/16 04:25:41;;;;;;;89.37;39.23;;;;;;;;;;5025899;28;20034;-68
2022/01/16 04:28:07;;;;;;;92.70;41.10;;;;;;;;;;5027520;28;20112;-68
2022/01/16 04:30:33;;;;;;;71.33;34.43;;;2.60;99.90;;;;;;5027380;28;20040;-68
2022/01/16 04:32:58;;;;;;;87.43;34.67;;;;;;;;;;5027704;28;20386;-68
2022/01/16 04:35:24;;;;;;;105.90;41.57;;;2.70;99.90;;;;;;5027126;28;20136;-69
2022/01/16 04:37:50;;;;;;;104.93;41.63;;;;;;;;;;5027480;28;20037;-69
2022/01/16 04:40:16;;;;;;;123.40;45.17;;;2.90;99.90;;;;;;5028051;28;20055;-68
2022/01/16 04:45:27;;;;;;;;;;;2.70;99.90;;;;;;5027812;28;20099;-68
2022/01/16 04:47:53;;;;;;;122.43;46.60;;;2.90;99.90;;;;;;5027602;28;20357;-68
2022/01/16 04:50:21;;;;;;;93.57;42.67;;;3.00;99.90;;;;;;5027220;28;20056;-68
2022/01/16 04:52:48;;;;;;;85.13;37.57;;;2.80;99.90;;;;;;5027302;28;20360;-70
2022/01/16 04:55:14;;;;;;;82.90;35.20;;;;;;;;;;5027610;28;20029;-68
2022/01/16 04:57:41;;;;;;;83.53;39.03;;;2.80;99.90;;;;;;5026786;28;20022;-69
2022/01/16 05:00:11;;;;;;;96.07;41.97;;;2.80;99.90;;;;;;5027827;28;20029;-68
2022/01/16 05:02:37;;;;;;;80.57;38.77;;;3.10;99.90;;;;;;5030609;28;20017;-68
2022/01/16 05:05:03;;;;;;;97.17;46.57;;;;;;;;;;5030565;28;20368;-68
2022/01/16 05:07:29;;;;;;;94.67;44.40;;;2.70;99.90;;;;;;5030706;28;20040;-68
2022/01/16 05:09:54;;;;;;;100.37;45.47;;;2.90;99.90;;;;;;5012737;28;20029;-68
2022/01/16 05:12:41;;;;;;;87.40;40.53;;;2.80;99.90;;;;;;5030908;28;20033;-68
2022/01/16 05:17:52;;;;;;;103.67;46.77;;;;;;;;;;5030378;28;20102;-68
2022/01/16 05:20:18;;;;;;;113.13;50.30;;;;;;;;;;5030734;28;20459;-68
2022/01/16 05:22:44;;;;;;;93.73;45.97;;;2.90;99.90;;;;;;5028116;28;20025;-68
2022/01/16 05:25:13;;;;;;;107.27;48.57;;;;;;;;;;5030594;28;20033;-68
2022/01/16 05:27:38;;;;;;;93.43;47.07;;;3.00;99.90;;;;;;5029933;28;20033;-68
2022/01/16 05:30:05;;;;;;;95.00;48.60;;;3.00;99.90;;;;;;5026407;28;20110;-69
2022/01/16 05:32:30;;;;;;;94.27;46.87;;;2.60;99.90;;;;;;5026631;28;20034;-68
2022/01/16 05:34:56;;;;;;;103.80;48.83;;;3.10;99.90;;;;;;5030175;28;20037;-68
2022/01/16 05:37:22;;;;;;;103.00;49.00;;;;;;;;;;5030558;28;20029;-69
2022/01/16 05:39:49;;;;;;;85.37;38.57;;;;;;;;;;5028349;28;20127;-68
2022/01/16 05:42:15;;;;;;;83.10;41.80;;;2.90;99.90;;;;;;5030322;28;20049;-68
2022/01/16 05:44:41;;;;;;;86.20;42.97;;;;;;;;;;5029371;28;20048;-68
2022/01/16 05:47:07;;;;;;;86.63;44.60;;;2.90;99.90;;;;;;5029350;28;20029;-67
2022/01/16 05:49:33;;;;;;;101.63;48.97;;;2.90;99.90;;;;;;5029257;28;20060;-68
2022/01/16 05:51:58;;;;;;;109.53;50.17;;;3.00;99.90;;;;;;5030459;28;20044;-68
2022/01/16 05:54:24;;;;;;;96.23;47.63;;;3.10;99.90;;;;;;5012074;28;20021;-68
2022/01/16 05:56:49;;;;;;;95.70;49.77;;;3.10;99.90;;;;;;5029957;28;20415;-68
2022/01/16 05:59:15;;;;;;;96.27;46.47;;;;;;;;;;5030200;28;20092;-68
2022/01/16 06:01:41;;;;;;;108.13;51.67;;;2.80;99.90;;;;;;5028770;28;20108;-68
2022/01/16 06:04:06;;;;;;;104.37;48.97;;;2.90;99.90;;;;;;5029868;28;20454;-68
2022/01/16 06:06:32;;;;;;;106.57;51.93;;;2.90;99.90;;;;;;5029507;28;20116;-68
2022/01/16 06:08:58;;;;;;;91.63;46.03;;;;;;;;;;5029982;28;20029;-68
2022/01/16 06:11:23;;;;;;;87.53;44.53;;;3.00;99.90;;;;;;5029707;28;20037;-68
2022/01/16 06:13:49;;;;;;;97.93;48.67;;;2.80;99.90;;;;;;5028934;28;20148;-68
2022/01/16 06:16:15;;;;;;;91.63;48.77;;;;;;;;;;5011661;28;20068;-68
2022/01/16 06:18:41;;;;;;;124.87;55.67;;;;;;;;;;5029200;28;20074;-68
2022/01/16 06:21:07;;;;;;;102.53;49.77;;;;;;;;;;5029918;28;20033;-68
2022/01/16 06:23:32;;;;;;;100.10;53.87;;;3.00;99.90;;;;;;5029322;28;20155;-68
2022/01/16 06:25:58;;;;;;;114.70;54.33;;;;;;;;;;5029608;28;20041;-67
2022/01/16 06:28:27;;;;;;;110.00;52.63;;;3.10;99.90;;;;;;5029467;28;20029;-68
2022/01/16 06:30:52;;;;;;;116.80;57.87;;;3.00;99.90;;;;;;5029034;28;20025;-68
2022/01/16 06:33:18;;;;;;;118.53;57.03;;;2.90;99.90;;;;;;5011868;28;20072;-68
2022/01/16 06:35:44;;;;;;;115.17;52.73;;;;;;;;;;5028773;28;20481;-69
2022/01/16 06:38:10;;;;;;;124.43;59.03;;;2.90;99.90;;;;;;5029487;28;20025;-68
2022/01/16 06:40:35;;;;;;;99.07;51.53;;;3.10;99.90;;;;;;5028731;28;20036;-68
2022/01/16 06:43:01;;;;;;;111.70;55.40;;;;;;;;;;5029432;28;20048;-68
2022/01/16 06:45:28;;;;;;;112.03;57.37;;;2.60;99.90;;;;;;5025186;28;20046;-69
2022/01/16 06:47:54;;;;;;;121.00;57.43;;;2.90;99.90;;;;;;5028677;28;20032;-68
2022/01/16 06:50:20;;;;;;;120.23;60.03;;;3.00;99.90;;;;;;5029074;28;20057;-68
2022/01/16 06:52:46;;;;;;;104.90;55.20;;;;;;;;;;5028661;28;20017;-69
2022/01/16 06:55:11;;;;;;;103.33;53.77;;;3.00;99.90;;;;;;5029344;28;20036;-69
2022/01/16 06:57:37;;;;;;;113.23;55.57;;;2.90;99.90;;;;;;5028617;28;20029;-68
2022/01/16 07:00:09;;;;;;;103.83;52.80;;;2.80;99.90;;;;;;5028486;28;20108;-68
2022/01/16 07:02:35;;;;;;;105.90;56.47;;;3.10;99.90;;;;;;5010571;28;20107;-69
2022/01/16 07:05:02;;;;;;;104.50;53.43;;;2.80;99.90;;;;;;5028947;28;20072;-68
2022/01/16 07:07:28;;;;;;;117.73;58.27;;;;;;;;;;5028543;28;20025;-68
2022/01/16 07:09:54;;;;;;;108.87;55.17;;;3.00;99.90;;;;;;5028850;28;20090;-68
2022/01/16 07:12:19;;;;;;;107.33;56.23;;;3.10;99.90;;;;;;5029191;28;20108;-68
2022/01/16 07:14:47;;;;;;;105.23;58.87;;;;;;;;;;5009866;28;20445;-68
2022/01/16 07:17:13;;;;;;;113.47;61.03;;;;;;;;;;5028876;28;20171;-68
2022/01/16 07:19:39;;;;;;;101.60;55.73;;;;;;;;;;5028239;28;20088;-68
2022/01/16 07:22:05;;;;;;;112.27;59.53;;;3.00;99.90;;;;;;5028599;28;20041;-69
2022/01/16 07:24:31;;;;;;;97.90;51.97;;;;;;;;;;5028141;28;20029;-69
2022/01/16 07:27:00;;;;;;;100.00;51.43;;;3.00;99.90;;;;;;5026872;28;20471;-68
2022/01/16 07:29:26;;;;;;;100.63;52.20;;;2.70;99.90;;;;;;5027312;28;20048;-69
2022/01/16 07:31:51;;;;;;;87.17;50.33;;;3.10;99.90;;;;;;5027889;28;20025;-68
2022/01/16 07:34:17;;;;;;;98.23;54.20;;;3.10;99.90;;;;;;5028554;28;20037;-69
2022/01/16 07:36:43;;;;;;;93.13;54.07;;;;;;;;;;5027703;28;20033;-68
2022/01/16 07:39:08;;;;;;;103.47;53.30;;;3.00;99.90;;;;;;5026820;28;20068;-68
2022/01/16 07:41:34;;;;;;;93.40;53.80;;;3.30;99.90;;;;;;5027738;28;20057;-68
2022/01/16 07:43:59;;;;;;;91.10;49.03;;;3.10;99.90;;;;;;5027450;28;20537;-68
2022/01/16 07:46:27;;;;;;;85.57;51.27;;;3.30;99.90;;;;;;5027165;28;20041;-68
2022/01/16 07:48:53;;;;;;;85.67;50.70;;;3.10;99.90;;;;;;5025274;28;20099;-68
2022/01/16 07:51:19;;;;;;;90.43;52.60;;;;;;;;;;5024483;28;20405;-68
2022/01/16 07:53:44;;;;;;;88.90;49.93;;;3.20;99.90;;;;;;5005650;28;20464;-68
2022/01/16 07:56:10;;;;;;;88.33;51.53;;;3.40;99.90;;;;;;5007121;28;20056;-68
2022/01/16 07:58:36;;;;;;;91.83;52.47;;;3.20;99.90;;;;;;5007271;28;20034;-69
2022/01/16 08:01:03;;;;;;;92.87;52.67;;;3.40;99.90;;;;;;5026025;28;20033;-69
2022/01/16 08:03:28;;;;;;;84.17;48.47;;;3.30;99.90;;;;;;5027662;28;20030;-68
2022/01/16 08:05:54;;;;;;;92.87;52.90;;;;;;;;;;5027734;28;20044;-68
2022/01/16 08:08:20;;;;;;;91.93;49.10;;;3.50;99.90;;;;;;5028382;28;20029;-69
2022/01/16 08:10:45;;;;;;;83.23;50.50;;;;;;;;;;5027563;28;20034;-69
2022/01/16 08:13:11;;;;;;;85.37;49.87;;;3.30;99.90;;;;;;5027672;28;20029;-68
2022/01/16 08:15:37;;;;;;;87.33;48.90;;;;;;;;;;5027572;28;20037;-69
2022/01/16 08:18:03;;;;;;;85.40;51.50;;;3.40;99.90;;;;;;5027770;28;20373;-69
2022/01/16 08:20:28;;;;;;;86.57;50.83;;;3.60;99.90;;;;;;5027399;28;20182;-68
2022/01/16 08:22:54;;;;;;;72.27;48.00;;;3.50;99.90;;;;;;5010133;28;20026;-68
2022/01/16 08:25:21;;;;;;;72.60;44.97;;;3.50;99.90;;;;;;5028021;28;20032;-68
2022/01/16 08:27:46;;;;;;;83.90;49.87;;;3.30;99.90;;;;;;5026701;28;20017;-68
2022/01/16 08:30:12;;;;;;;80.33;44.83;;;3.60;99.90;;;;;;5028133;28;20034;-68
2022/01/16 08:32:39;;;;;;;85.63;48.60;;;3.70;99.90;;;;;;5027440;28;20037;-67
2022/01/16 08:35:06;;;;;;;80.73;47.27;;;3.70;99.90;;;;;;5027734;28;20032;-67
2022/01/16 08:37:32;;;;;;;74.20;45.37;;;;;;;;;;5013461;28;20033;-67
2022/01/16 08:39:57;;;;;;;80.07;48.23;;;3.80;99.90;;;;;;5031633;28;20029;-67
2022/01/16 08:42:23;;;;;;;78.17;47.67;;;;;;;;;;5030859;28;20037;-67
2022/01/16 08:44:49;;;;;;;78.03;46.70;;;;;;;;;;5031290;28;20125;-67
2022/01/16 08:47:15;;;;;;;76.33;47.23;;;;;;;;;;5031810;28;20036;-67
2022/01/16 08:49:41;;;;;;;73.90;42.93;;;;;;;;;;5030480;28;20059;-68
2022/01/16 08:52:07;;;;;;;74.37;43.67;;;4.00;99.90;;;;;;5031217;28;20100;-67
2022/01/16 08:54:33;;;;;;;69.70;44.77;;;4.20;99.90;;;;;;5030918;28;20052;-68
2022/01/16 08:57:00;;;;;;;70.07;43.90;;;4.00;99.90;;;;;;5030580;28;20048;-67
2022/01/16 08:59:26;;;;;;;69.03;43.33;;;;;;;;;;5031060;28;20029;-67
2022/01/16 09:01:52;;;;;;;75.27;47.43;;;;;;;;;;5030664;28;20124;-67
2022/01/16 09:04:18;;;;;;;72.90;44.03;;;;;;;;;;5030349;28;20059;-67
2022/01/16 09:06:43;;;;;;;66.33;41.30;;;4.40;99.90;;;;;;5030437;28;20325;-68
2022/01/16 09:09:09;;;;;;;73.43;43.77;;;;;;;;;;5030952;28;20095;-67
2022/01/16 09:11:35;;;;;;;71.00;43.17;;;;;;;;;;5029921;28;20411;-68
2022/01/16 09:14:01;;;;;;;68.57;42.23;;;;;;;;;;5030952;28;20112;-67
2022/01/16 09:16:27;;;;;;;63.97;40.33;;;4.60;99.90;;;;;;5030717;28;20078;-67
2022/01/16 09:18:53;;;;;;;65.00;38.73;;;4.60;99.90;;;;;;5031041;28;20451;-68
2022/01/16 09:21:19;;;;;;;69.53;43.27;;;4.40;99.90;;;;;;5031072;28;20043;-67
2022/01/16 09:23:46;;;;;;;74.10;43.63;;;4.40;99.90;;;;;;5030229;28;20034;-67
2022/01/16 09:26:13;;;;;;;69.83;42.27;;;4.60;99.90;;;;;;5030264;28;20044;-67
2022/01/16 09:28:39;;;;;;;63.20;40.30;;;4.60;99.90;;;;;;5029796;28;20025;-67
2022/01/16 09:31:05;;;;;;;68.13;40.30;;;4.50;99.90;;;;;;5030114;28;20021;-68
2022/01/16 09:33:30;;;;;;;76.17;45.07;;;4.80;99.90;;;;;;5029819;28;20354;-68
2022/01/16 09:35:56;;;;;;;67.70;40.37;;;4.90;99.90;;;;;;5030632;28;20436;-68
2022/01/16 09:38:22;;;;;;;65.03;40.90;;;;;;;;;;5030179;28;20025;-68
2022/01/16 09:40:49;;;;;;;74.83;41.93;;;4.90;99.90;;;;;;5029527;28;20112;-68
2022/01/16 09:43:16;;;;;;;69.30;42.13;;;4.80;99.90;;;;;;5012811;28;20017;-68
2022/01/16 09:45:42;;;;;;;65.90;41.00;;;4.80;99.90;;;;;;5029210;28;20802;-69
2022/01/16 09:48:07;;;;;;;75.20;43.80;;;5.00;99.90;;;;;;5029124;28;20037;-68
2022/01/16 09:50:33;;;;;;;67.63;41.23;;;4.90;99.90;;;;;;5029711;28;20355;-69
2022/01/16 09:53:00;;;;;;;67.60;42.53;;;5.10;99.90;;;;;;5029864;28;20025;-69
2022/01/16 09:55:26;;;;;;;79.03;42.47;;;5.00;99.90;;;;;;5028706;28;20386;-69
2022/01/16 09:57:54;;;;;;;76.43;40.07;;;5.20;99.90;;;;;;5029591;28;20037;-69
2022/01/16 10:00:22;;;;;;;71.13;42.23;;;5.10;99.90;;;;;;5030208;28;20402;-68
2022/01/16 10:02:48;;;;;;;78.57;42.53;;;5.10;99.90;;;;;;5029742;28;20344;-68
2022/01/16 10:05:25;;;;;;;75.27;43.47;;;5.00;99.90;;;;;;5030003;28;20025;-68
2022/01/16 10:07:51;;;;;;;68.10;41.07;;;5.00;99.90;;;;;;5029010;28;20434;-68
2022/01/16 10:10:17;;;;;;;66.53;40.03;;;5.00;99.90;;;;;;5028660;28;20037;-69
2022/01/16 10:12:51;;;;;;;76.30;43.23;;;5.10;99.90;;;;;;5011323;28;20335;-69
2022/01/16 10:15:22;;;;;;;82.23;46.17;;;5.10;99.90;;;;;;5029847;28;20037;-70
2022/01/16 10:17:50;;;;;;;75.13;42.03;;;5.20;99.90;;;;;;5029273;28;20040;-68
2022/01/16 10:20:16;;;;;;;80.73;43.63;;;5.10;99.90;;;;;;5029795;28;20140;-68
2022/01/16 10:22:51;;;;;;;86.73;46.13;;;4.50;99.90;;;;;;5028543;28;20809;-68
2022/01/16 10:25:17;;;;;;;;;;;5.50;99.90;;;;;;5030224;28;20168;-68
2022/01/16 10:27:46;;;;;;;77.23;44.70;;;5.00;99.90;;;;;;5028912;28;19983;-67
2022/01/16 10:30:14;;;;;;;79.40;45.07;;;5.10;99.90;;;;;;5029443;28;20018;-68
2022/01/16 10:32:42;;;;;;;89.93;47.47;;;4.70;99.90;;;;;;5028938;28;20028;-68
2022/01/16 10:35:20;;;;;;;86.90;47.63;;;5.20;99.90;;;;;;5029478;28;20029;-68
2022/01/16 10:37:48;;;;;;;90.70;47.63;;;5.10;99.90;;;;;;5028094;28;20021;-68
2022/01/16 10:40:20;;;;;;;85.23;45.27;;;5.00;99.90;;;;;;5028895;28;20022;-68
2022/01/16 10:42:55;;;;;;;86.37;46.73;;;5.20;99.90;;;;;;5027917;28;20490;-68
2022/01/16 10:45:30;;;;;;;92.67;49.77;;;5.20;99.90;;;;;;5009617;28;20037;-68
2022/01/16 10:48:01;;;;;;;98.03;49.30;;;5.10;99.90;;;;;;5008719;28;20029;-68
2022/01/16 10:50:28;;;;;;;97.77;50.93;;;;;;;;;;5008174;28;20052;-68
2022/01/16 10:52:57;;;;;;;97.37;48.33;;;5.30;99.90;;;;;;5007703;28;20443;-68
2022/01/16 10:56:03;;;;;;;90.27;49.73;;;5.20;99.90;;;;;;5006833;28;20025;-68
2022/01/16 10:58:36;;;;;;;97.60;50.40;;;5.50;99.90;;;;;;4931672;29;20046;-68
2022/01/16 11:01:08;;;;;;;107.35;55.03;;;5.30;99.90;;;;;;4947557;29;20031;-69
2022/01/16 11:03:48;;;;;;;89.63;49.47;;;5.20;99.90;;;;;;4947698;29;20046;-69
2022/01/16 11:06:15;;;;;;;97.73;50.87;;;5.50;99.90;;;;;;4947285;29;20180;-68
2022/01/16 11:08:57;;;;;;;99.87;50.47;;;5.70;99.90;;;;;;4947229;29;20031;-67
2022/01/16 11:11:24;;;;;;;105.07;54.70;;;5.30;99.90;;;;;;4947410;29;20035;-70
2022/01/16 11:13:50;;;;;;;98.67;51.07;;;5.40;99.90;;;;;;4939977;29;20362;-67
2022/01/16 11:16:17;;;;;;;98.23;53.57;;;5.10;99.90;;;;;;4928873;29;20036;-68
2022/01/16 11:18:49;;;;;;;101.47;51.50;;;5.30;99.90;;;;;;4927703;29;20657;-69
2022/01/16 11:21:20;;;;;;;108.47;59.07;;;5.60;99.90;;;;;;4928599;29;20035;-68
2022/01/16 11:26:13;;;;;;;98.90;52.10;;;5.70;99.90;;;;;;4928512;29;20244;-68
2022/01/16 11:28:39;;;;;;;98.17;50.23;;;5.40;99.90;;;;;;4911737;29;20043;-68
2022/01/16 11:31:09;;;;;;;105.60;51.50;;;5.40;99.90;;;;;;4938765;29;20036;-68
2022/01/16 11:33:35;;;;;;;109.33;54.20;;;5.30;99.90;;;;;;5026990;28;20471;-68
2022/01/16 11:36:06;;;;;;;98.37;49.83;;;5.40;99.90;;;;;;5009193;28;20076;-67
2022/01/16 11:38:37;;;;;;;109.37;52.90;;;5.50;99.90;;;;;;5027803;28;20021;-68
2022/01/16 11:41:30;;;;;;;112.10;53.80;;;5.50;99.90;;;;;;5028440;28;20056;-68
2022/01/16 11:43:55;;;;;;;103.63;50.33;;;5.40;99.90;;;;;;5028319;28;20344;-68
2022/01/16 11:46:24;;;;;;;112.70;50.37;;;5.40;99.90;;;;;;5028208;28;20044;-68
2022/01/16 11:48:58;;;;;;;109.33;51.00;;;5.40;99.90;;;;;;5027229;28;20041;-68
2022/01/16 11:51:37;;;;;;;113.83;50.17;;;5.40;99.90;;;;;;5022990;28;20513;-68
2022/01/16 11:54:11;;;;;;;115.60;53.77;;;5.50;99.90;;;;;;5017455;28;20022;-68
2022/01/16 11:59:21;;;;;;;107.37;51.33;;;5.20;99.90;;;;;;5028199;28;20175;-68
2022/01/16 12:02:09;;;;;;;113.57;52.00;;;5.50;99.90;;;;;;5010040;28;20482;-68
2022/01/16 12:04:36;;;;;;;112.83;50.93;;;;;;;;;;4989375;28;20388;-68
2022/01/16 12:07:21;;;;;;;118.80;53.90;;;5.50;99.90;;;;;;5021926;28;20497;-68
2022/01/16 12:09:49;;;;;;;108.10;49.10;;;5.40;99.90;;;;;;5024777;28;20041;-68
2022/01/16 12:12:15;;;;;;;122.33;52.13;;;5.50;99.90;;;;;;5028045;28;20076;-68
2022/01/16 12:15:15;;;;;;;112.90;52.77;;;5.50;99.90;;;;;;5027389;28;20119;-68
2022/01/16 12:17:45;;;;;;;133.33;56.10;;;;;;;;;;5010210;28;20036;-68
2022/01/16 12:20:26;;;;;;;135.40;56.77;;;5.70;99.90;;;;;;5026113;28;20040;-68
2022/01/16 12:23:10;;;;;;;125.23;53.70;;;5.40;99.90;;;;;;5027115;28;20071;-68
2022/01/16 12:25:54;;;;;;;113.03;50.37;;;5.60;99.90;;;;;;5007408;28;20034;-68
2022/01/16 12:28:23;;;;;;;110.25;51.65;;;5.80;99.90;;;;;;5019137;28;20540;-68
2022/01/16 12:30:58;;;;;;;113.77;54.83;;;5.70;99.90;;;;;;5027414;28;20473;-68
2022/01/16 12:33:38;;;;;;;111.37;54.07;;;5.70;99.90;;;;;;5027004;28;20029;-68
2022/01/16 12:36:09;;;;;;;115.97;52.43;;;5.80;99.90;;;;;;5009741;28;20479;-69
2022/01/16 12:38:37;;;;;;;119.57;51.17;;;5.70;99.90;;;;;;5027363;28;20061;-68
2022/01/16 12:41:40;;;;;;;124.23;51.53;;;6.10;99.90;;;;;;5027237;28;20036;-68
2022/01/16 12:44:17;;;;;;;105.80;50.67;;;6.00;99.90;;;;;;5025167;28;20600;-68
2022/01/16 12:46:49;;;;;;;106.60;51.60;;;5.90;99.90;;;;;;5026618;28;20072;-68
2022/01/16 12:49:15;;;;;;;109.53;50.90;;;;;;;;;;5026829;28;20038;-69
2022/01/16 12:51:42;;;;;;;101.10;47.40;;;6.00;99.90;;;;;;5026258;28;20032;-68
2022/01/16 12:54:16;;;;;;;113.87;47.97;;;5.90;99.90;;;;;;5027209;28;20036;-70
2022/01/16 12:56:47;;;;;;;115.53;50.25;;;6.00;99.90;;;;;;5026699;28;20525;-67
2022/01/16 12:59:13;;;;;;;106.70;49.97;;;;;;;;;;5026924;28;20443;-68
2022/01/16 13:01:49;;;;;;;109.80;50.40;;;6.00;99.90;;;;;;5026576;28;20025;-68
2022/01/16 13:04:38;;;;;;;124.00;53.27;;;6.10;99.90;;;;;;5027218;28;20101;-68
2022/01/16 13:07:09;;;;;;;109.03;52.17;;;6.20;99.90;;;;;;5006789;28;20116;-68
2022/01/16 13:09:35;;;;;;;125.83;55.17;;;6.30;99.90;;;;;;5026809;28;20021;-69
2022/01/16 13:12:02;;;;;;;117.50;49.93;;;6.10;99.90;;;;;;5026660;28;20420;-70
2022/01/16 13:14:33;;;;;;;129.47;58.20;;;6.20;99.90;;;;;;5026645;28;20382;-69
2022/01/16 13:17:06;;;;;;;111.37;52.47;;;6.30;99.90;;;;;;5026519;28;20399;-69
2022/01/16 13:19:56;;;;;;;128.00;54.47;;;6.30;99.90;;;;;;5026594;28;20397;-69
2022/01/16 13:22:23;;;;;;;109.70;52.37;;;6.30;99.90;;;;;;5028992;28;20124;-70
2022/01/16 13:25:02;;;;;;;123.23;53.47;;;6.50;99.90;;;;;;5029544;28;20025;-70
2022/01/16 13:27:39;;;;;;;120.30;57.27;;;6.40;99.90;;;;;;5030368;28;20033;-70
2022/01/16 13:30:17;;;;;;;119.97;53.30;;;6.40;99.90;;;;;;5030767;28;20025;-69
2022/01/16 13:32:44;;;;;;;134.50;56.63;;;6.40;99.90;;;;;;5029660;28;20029;-70
2022/01/16 13:35:22;;;;;;;118.17;56.20;;;6.30;99.90;;;;;;5028031;28;20052;-70
2022/01/16 13:37:52;;;;;;;108.83;53.97;;;6.30;99.90;;;;;;5030315;28;20124;-68
2022/01/16 13:40:21;;;;;;;120.73;52.97;;;6.60;99.90;;;;;;5030668;28;20025;-68
2022/01/16 13:43:02;;;;;;;108.27;49.90;;;6.40;99.90;;;;;;5012030;28;20416;-68
2022/01/16 13:45:39;;;;;;;108.90;52.90;;;6.50;99.90;;;;;;5029693;28;20061;-68
2022/01/16 13:48:10;;;;;;;117.37;57.40;;;6.40;99.90;;;;;;5030368;28;20017;-68